Time;durP1;ratioP1;P1;durP2;ratioP2;P2;SDS_P1;SDS_P2;PMS_P1;PMS_P2;Temp;Humidity;BMP_temperature;BMP_pressure;BME280_temperature;BME280_humidity;BME280_pressure;Samples;Min_cycle;Max_cycle;Signal;HPM_P1;HPM_P2
2023/12/13 11:34:58;;;;;;;5.07;1.87;;;;;;;12.14;100.00;97214.94;6232017;22;1573748;-86
2023/12/13 11:37:27;;;;;;;2.43;1.70;;;;;;;12.33;100.00;97204.25;6234884;22;42692;-85
2023/12/13 11:39:57;;;;;;;3.77;1.77;;;;;;;12.44;100.00;97201.41;6234930;22;38961;-85
2023/12/13 11:42:24;;;;;;;2.27;1.30;;;;;;;12.61;100.00;97193.63;6235181;22;43959;-85
2023/12/13 11:44:53;;;;;;;1.90;1.10;;;;;;;13.05;100.00;97194.56;6232758;22;43245;-85
2023/12/13 11:47:22;;;;;;;1.00;0.90;;;;;;;13.78;100.00;97192.53;6234094;22;41046;-86
2023/12/13 11:59:28;;;;;;;1.73;0.67;;;;;;;19.44;70.99;97230.50;6265359;22;41505;-86
2023/12/13 12:01:57;;;;;;;1.10;0.80;;;;;;;19.17;66.85;97245.47;6265515;22;39360;-86
2023/12/13 12:05:03;;;;;;;0.67;0.67;;;;;;;19.52;65.94;97233.09;6264893;22;41162;-86
2023/12/13 12:14:22;;;;;;;1.33;0.70;;;;;;;21.07;57.33;97261.50;6319779;22;41201;-86
2023/12/13 12:16:51;;;;;;;1.43;0.70;;;;;;;20.84;57.23;97244.00;6265378;22;40720;-86
2023/12/13 12:19:47;;;;;;;1.97;0.90;;;;;;;23.37;53.00;97261.72;6264886;22;43343;-86
2023/12/13 12:22:35;;;;;;;1.13;0.83;;;;;;;22.92;49.44;97256.28;6265086;22;41074;-87
2023/12/13 12:28:22;;;;;;;0.53;0.53;;;;;;;21.56;52.64;97238.91;6311397;22;42175;-87
2023/12/13 12:34:13;;;;;;;1.67;0.83;;;;;;;25.61;46.35;97278.66;6256671;22;41452;-87
2023/12/13 12:36:41;;;;;;;1.07;0.70;;;;;;;25.46;44.88;97294.50;6256241;22;40117;-87
2023/12/13 12:42:30;;;;;;;1.63;0.90;;;;;;;27.70;39.51;97316.00;6256970;22;41884;-89
2023/12/13 12:44:58;;;;;;;2.20;0.70;;;;;;;28.81;37.63;97305.44;6232084;22;41423;-88
2023/12/13 12:47:25;;;;;;;2.17;0.70;;;;;;;28.44;37.15;97319.53;6258537;22;39121;-87
2023/12/13 12:50:13;;;;;;;2.78;0.90;;;;;;;27.85;38.18;97280.09;6257899;22;43009;-88
2023/12/13 12:52:42;;;;;;;1.65;0.80;;;;;;;27.45;38.69;97286.38;6258006;22;42076;-88
2023/12/13 13:01:48;;;;;;;1.70;0.90;;;;;;;24.62;41.03;97240.00;6319426;22;42448;-88
2023/12/13 13:04:19;;;;;;;1.77;0.77;;;;;;;23.85;42.15;97249.41;6314602;22;42310;-88
2023/12/13 13:07:28;;;;;;;1.40;0.80;;;;;;;23.11;42.67;97282.41;6314405;22;42571;-88
2023/12/13 13:09:55;;;;;;;1.33;0.80;;;;;;;22.23;44.94;97251.41;6314446;22;40432;-88
2023/12/13 13:15:29;;;;;;;1.07;0.77;;;;;;;20.66;47.27;97248.03;6312695;22;43372;-88
2023/12/13 13:17:57;;;;;;;1.77;0.90;;;;;;;19.82;48.48;97206.91;6266522;22;41387;-89
2023/12/13 13:21:05;;;;;;;8.37;4.23;;;;;;;19.43;49.69;97244.94;6280809;22;39149;-88
2023/12/13 13:23:34;;;;;;;2.00;1.60;;;;;;;18.92;51.05;97239.59;6271233;22;42130;-83
2023/12/13 13:26:04;;;;;;;2.10;0.83;;;;;;;18.48;52.15;97228.06;6269426;22;44198;-84
2023/12/13 13:31:42;;;;;;;1.10;0.80;;;;;;;17.78;54.30;97220.41;6266612;22;20388;-88
2023/12/13 13:42:52;;;;;;;3.03;0.77;;;;;;;16.19;56.95;97156.81;6250159;22;41216;-92
2023/12/13 13:48:22;;;;;;;1.50;0.90;;;;;;;15.62;59.25;97164.94;6194591;22;43408;-87
2023/12/13 13:56:56;;;;;;;1.90;0.80;;;;;;;14.89;62.08;97162.22;6280066;22;44406;-89
2023/12/13 13:59:57;;;;;;;2.50;0.90;;;;;;;14.61;62.90;97181.13;6226972;22;43345;-88
2023/12/13 14:02:50;;;;;;;1.50;0.90;;;;;;;14.07;66.38;97171.75;6227529;22;42412;-91
2023/12/13 14:08:09;;;;;;;1.37;0.70;;;;;;;13.60;69.26;97171.28;6224835;22;40964;-90
2023/12/13 14:10:37;;;;;;;1.20;0.50;;;;;;;13.50;70.27;97178.53;6202011;22;43105;-89
2023/12/13 14:13:04;;;;;;;1.37;0.53;;;;;;;13.40;70.44;97188.41;6227363;22;41458;-89
2023/12/13 14:15:32;;;;;;;0.80;0.40;;;;;;;13.01;70.54;97156.81;6226393;22;38944;-89
2023/12/13 14:23:55;;;;;;;1.00;0.40;;;;;;;12.69;72.26;97199.00;6225489;22;42533;-89
2023/12/13 14:26:22;;;;;;;1.50;0.60;;;;;;;12.51;72.87;97191.84;6225213;22;39796;-90
2023/12/13 14:29:12;;;;;;;1.13;0.60;;;;;;;12.16;73.12;97151.94;6227294;22;40600;-89
2023/12/13 14:32:00;;;;;;;2.33;0.93;;;;;;;12.18;73.11;97182.66;6241122;22;42370;-90
2023/12/13 14:37:33;;;;;;;2.17;1.23;;;;;;;11.68;73.63;97160.91;6251555;22;39798;-87
2023/12/13 14:43:17;;;;;;;2.83;1.30;;;;;;;11.27;74.10;97140.06;6225785;22;41885;-89
2023/12/13 14:45:47;;;;;;;1.73;0.90;;;;;;;11.33;75.20;97168.66;6227214;22;42297;-90
2023/12/13 14:48:17;;;;;;;2.73;1.00;;;;;;;11.36;75.29;97208.13;6226576;22;40808;-90
2023/12/13 14:50:45;;;;;;;3.40;1.13;;;;;;;11.32;75.46;97215.50;6227156;22;41905;-88
2023/12/13 14:53:14;;;;;;;1.93;1.10;;;;;;;11.22;75.94;97217.34;6226975;22;41634;-90
2023/12/13 14:56:06;;;;;;;2.57;1.20;;;;;;;10.89;77.04;97192.06;6225926;22;42382;-90
2023/12/13 14:58:49;;;;;;;1.27;1.10;;;;;;;10.88;78.03;97208.94;6202009;22;40382;-90
2023/12/13 15:01:17;;;;;;;2.07;1.00;;;;;;;10.81;77.65;97213.13;6226841;22;40974;-83
2023/12/13 15:03:44;;;;;;;2.97;1.13;;;;;;;10.67;78.03;97210.88;6228185;22;41775;-86
2023/12/13 15:06:12;;;;;;;1.30;0.97;;;;;;;10.57;78.25;97210.84;6226223;22;41110;-83
2023/12/13 15:08:41;;;;;;;2.57;1.20;;;;;;;10.50;78.86;97214.19;6227592;22;38924;-83
2023/12/13 15:11:09;;;;;;;2.10;1.00;;;;;;;10.37;78.78;97203.84;6226598;22;40542;-83
2023/12/13 15:13:36;;;;;;;2.40;1.00;;;;;;;10.32;78.84;97213.97;6252561;22;43052;-82
2023/12/13 15:16:05;;;;;;;2.93;1.10;;;;;;;10.26;79.62;97215.34;6251969;22;43228;-82
2023/12/13 15:18:33;;;;;;;1.13;1.00;;;;;;;10.19;79.45;97227.44;6227419;22;40066;-83
2023/12/13 15:21:01;;;;;;;1.97;1.00;;;;;;;10.06;80.54;97216.22;6227027;22;43413;-82
